createdAt,value
2018-09-08T00:02:10.510Z,65.76
2018-09-08T00:04:38.731Z,65.96
2018-09-08T00:07:12.281Z,65.22
2018-09-08T00:09:40.502Z,66.13
2018-09-08T00:12:08.788Z,65.08
2018-09-08T00:14:36.140Z,65.38
2018-09-08T00:17:09.749Z,64.42
2018-09-08T00:19:43.236Z,63.36
2018-09-08T00:22:16.810Z,63.00
2018-09-08T00:24:50.413Z,62.83
2018-09-08T00:27:22.069Z,61.83
2018-09-08T00:29:51.257Z,61.79
2018-09-08T00:32:20.672Z,61.62
2018-09-08T00:34:49.051Z,61.85
2018-09-08T00:37:17.248Z,61.40
2018-09-08T00:39:49.617Z,61.32
2018-09-08T00:42:18.020Z,61.05
2018-09-08T00:44:46.341Z,60.93
2018-09-08T00:47:14.516Z,60.93
2018-09-08T00:49:42.700Z,61.31
2018-09-08T00:52:10.879Z,61.63
2018-09-08T00:54:39.076Z,61.63
2018-09-08T00:57:07.512Z,61.77
2018-09-08T00:59:35.688Z,61.56
2018-09-08T01:02:03.860Z,61.03
2018-09-08T01:04:32.198Z,60.34
2018-09-08T01:07:00.654Z,61.92
2018-09-08T01:09:28.837Z,61.27
2018-09-08T01:11:57.008Z,61.48
2018-09-08T01:14:25.164Z,61.89
2018-09-08T01:16:53.319Z,60.54
2018-09-08T01:19:21.532Z,60.61
2018-09-08T01:21:50.888Z,60.77
2018-09-08T01:24:19.078Z,60.47
2018-09-08T01:26:47.263Z,60.60
2018-09-08T01:29:15.599Z,60.36
2018-09-08T01:31:43.755Z,61.03
2018-09-08T01:34:11.947Z,61.07
2018-09-08T01:36:40.285Z,61.04
2018-09-08T01:39:08.630Z,61.57
2018-09-08T01:41:36.797Z,61.88
2018-09-08T01:44:05.045Z,60.49
2018-09-08T01:46:33.247Z,61.59
2018-09-08T01:49:01.421Z,61.57
2018-09-08T01:51:29.702Z,60.91
2018-09-08T01:53:57.879Z,61.04
2018-09-08T01:56:26.125Z,61.72
2018-09-08T01:58:54.420Z,62.54
2018-09-08T02:01:22.785Z,61.45
2018-09-08T02:03:51.003Z,61.85
2018-09-08T02:06:19.278Z,62.19
2018-09-08T02:08:47.506Z,62.08
2018-09-08T02:11:15.652Z,62.24
2018-09-08T02:13:43.821Z,61.64
2018-09-08T02:16:12.200Z,60.49
2018-09-08T02:18:40.601Z,60.26
2018-09-08T02:21:08.771Z,59.87
2018-09-08T02:23:37.026Z,60.09
2018-09-08T02:26:05.220Z,60.54
2018-09-08T02:28:33.944Z,60.75
2018-09-08T02:31:02.336Z,61.03
2018-09-08T02:33:30.619Z,61.13
2018-09-08T02:35:58.810Z,61.40
2018-09-08T02:38:27.421Z,61.36
2018-09-08T02:40:55.607Z,61.25
2018-09-08T02:43:23.895Z,61.79
2018-09-08T02:45:52.164Z,61.63
2018-09-08T02:48:20.350Z,62.35
2018-09-08T02:50:47.523Z,62.00
2018-09-08T02:53:15.073Z,61.46
2018-09-08T02:55:42.276Z,61.34
2018-09-08T02:58:09.493Z,61.76
2018-09-08T03:00:36.690Z,61.77
2018-09-08T03:03:04.066Z,60.90
2018-09-08T03:05:31.256Z,61.68
2018-09-08T03:07:58.413Z,62.18
2018-09-08T03:10:25.574Z,61.58
2018-09-08T03:12:52.730Z,61.80
2018-09-08T03:15:19.906Z,62.04
2018-09-08T03:17:47.043Z,62.77
2018-09-08T03:20:14.194Z,63.29
2018-09-08T03:22:41.336Z,63.33
2018-09-08T03:25:08.502Z,63.45
2018-09-08T03:27:35.884Z,63.64
2018-09-08T03:30:03.066Z,65.30
2018-09-08T03:32:30.406Z,65.58
2018-09-08T03:34:57.740Z,65.53
2018-09-08T03:37:24.951Z,66.49
2018-09-08T03:39:52.207Z,66.70
2018-09-08T03:42:19.355Z,66.72
2018-09-08T03:44:46.543Z,67.00
2018-09-08T03:47:13.712Z,67.11
2018-09-08T03:49:40.876Z,67.59
2018-09-08T03:52:08.055Z,68.06
2018-09-08T03:54:35.205Z,67.93
2018-09-08T03:57:02.361Z,68.64
2018-09-08T03:59:29.506Z,68.33
2018-09-08T04:01:56.657Z,68.57
2018-09-08T04:04:24.987Z,69.12
2018-09-08T04:06:53.547Z,69.56
2018-09-08T04:09:21.787Z,69.42
2018-09-08T04:11:49.945Z,69.66
2018-09-08T04:14:18.100Z,70.02
2018-09-08T04:16:46.347Z,70.06
2018-09-08T04:19:15.599Z,69.63
2018-09-08T04:21:43.792Z,70.06
2018-09-08T04:24:11.959Z,70.15
2018-09-08T04:26:40.131Z,70.08
2018-09-08T04:29:08.297Z,69.11
2018-09-08T04:31:36.446Z,69.70
2018-09-08T04:34:04.683Z,69.96
2018-09-08T04:36:33.020Z,69.21
2018-09-08T04:39:01.225Z,69.92
2018-09-08T04:41:30.153Z,70.30
2018-09-08T04:43:58.378Z,70.23
2018-09-08T04:46:26.534Z,70.62
2018-09-08T04:48:55.400Z,70.79
2018-09-08T04:51:23.622Z,70.78
2018-09-08T04:53:51.793Z,71.38
2018-09-08T04:56:20.006Z,71.47
2018-09-08T04:58:48.241Z,71.50
2018-09-08T05:01:16.432Z,71.24
2018-09-08T05:03:44.630Z,71.46
2018-09-08T05:06:12.936Z,71.62
2018-09-08T05:08:41.138Z,71.44
2018-09-08T05:11:09.384Z,72.61
2018-09-08T05:13:37.861Z,71.91
2018-09-08T05:16:06.208Z,71.87
2018-09-08T05:18:34.418Z,72.09
2018-09-08T05:21:02.586Z,71.51
2018-09-08T05:23:30.809Z,71.58
2018-09-08T05:25:59.002Z,71.51
2018-09-08T05:28:27.229Z,71.04
2018-09-08T05:30:55.385Z,70.94
2018-09-08T05:33:23.805Z,71.02
2018-09-08T05:35:51.984Z,71.10
2018-09-08T05:38:20.290Z,70.91
2018-09-08T05:40:48.512Z,70.50
2018-09-08T05:43:16.754Z,70.33
2018-09-08T05:45:45.118Z,70.53
2018-09-08T05:48:13.301Z,70.01
2018-09-08T05:50:41.667Z,70.09
2018-09-08T05:53:09.845Z,69.82
2018-09-08T05:55:38.054Z,69.46
2018-09-08T05:58:06.324Z,69.46
2018-09-08T06:00:34.598Z,68.70
2018-09-08T06:03:02.758Z,68.66
2018-09-08T06:05:31.016Z,68.69
2018-09-08T06:07:59.233Z,67.74
2018-09-08T06:10:27.456Z,68.07
2018-09-08T06:12:55.810Z,66.66
2018-09-08T06:15:24.059Z,65.95
2018-09-08T06:17:52.549Z,64.76
2018-09-08T06:20:20.967Z,65.22
2018-09-08T06:22:49.169Z,64.09
2018-09-08T06:25:17.493Z,65.17
2018-09-08T06:27:45.728Z,64.45
2018-09-08T06:30:13.935Z,63.92
2018-09-08T06:32:42.201Z,63.59
2018-09-08T06:35:10.552Z,63.42
2018-09-08T06:37:38.760Z,62.19
2018-09-08T06:40:07.283Z,60.49
2018-09-08T06:42:35.660Z,59.40
2018-09-08T06:45:04.056Z,58.80
2018-09-08T06:47:32.107Z,58.96
2018-09-08T06:50:00.320Z,57.63
2018-09-08T06:52:28.592Z,57.35
2018-09-08T06:54:58.114Z,55.70
2018-09-08T06:57:26.271Z,55.30
2018-09-08T06:59:54.511Z,55.24
2018-09-08T07:02:22.724Z,53.60
2018-09-08T07:04:50.866Z,54.25
2018-09-08T07:07:19.003Z,53.70
2018-09-08T07:09:47.290Z,53.40
2018-09-08T07:12:15.511Z,52.32
2018-09-08T07:14:43.684Z,51.90
2018-09-08T07:17:12.793Z,52.72
2018-09-08T07:19:41.316Z,52.59
2018-09-08T07:22:09.754Z,52.65
2018-09-08T07:24:37.931Z,52.13
2018-09-08T07:27:06.111Z,52.85
2018-09-08T07:29:34.277Z,53.38
2018-09-08T07:32:02.430Z,54.47
2018-09-08T07:34:30.617Z,52.31
2018-09-08T07:36:58.872Z,51.72
2018-09-08T07:39:27.098Z,52.48
2018-09-08T07:41:55.361Z,51.03
2018-09-08T07:44:23.522Z,49.95
2018-09-08T07:46:51.800Z,48.64
2018-09-08T07:49:20.026Z,49.14
2018-09-08T07:51:48.301Z,49.12
2018-09-08T07:54:16.589Z,48.90
2018-09-08T07:56:44.882Z,48.75
2018-09-08T07:59:13.133Z,48.09
2018-09-08T08:01:41.390Z,48.91
2018-09-08T08:04:09.882Z,49.25
2018-09-08T08:06:38.512Z,48.37
2018-09-08T08:09:07.523Z,48.29
2018-09-08T08:11:35.919Z,48.45
2018-09-08T08:14:04.304Z,47.46
2018-09-08T08:16:33.147Z,46.73
2018-09-08T08:19:01.372Z,45.29
2018-09-08T08:21:29.627Z,45.42
2018-09-08T08:23:57.819Z,45.22
2018-09-08T08:26:26.371Z,45.02
2018-09-08T08:28:54.625Z,44.67
2018-09-08T08:31:22.941Z,43.52
2018-09-08T08:33:51.333Z,43.26
2018-09-08T08:36:19.695Z,43.55
2018-09-08T08:38:47.973Z,43.35
2018-09-08T08:41:16.227Z,43.02
2018-09-08T08:43:44.484Z,42.62
2018-09-08T08:46:12.923Z,42.67
2018-09-08T08:48:41.219Z,42.35
2018-09-08T08:51:20.885Z,41.75
2018-09-08T08:54:00.449Z,42.41
2018-09-08T08:56:28.703Z,42.76
2018-09-08T08:58:56.933Z,42.10
2018-09-08T09:01:25.231Z,42.50
2018-09-08T09:03:53.464Z,42.46
2018-09-08T09:06:21.645Z,42.50
2018-09-08T09:08:50.271Z,42.90
2018-09-08T09:11:18.176Z,42.62
2018-09-08T09:13:46.447Z,42.93
2018-09-08T09:16:14.677Z,42.01
2018-09-08T09:18:54.760Z,42.30
2018-09-08T09:21:34.021Z,42.38
2018-09-08T09:25:06.936Z,42.00
2018-09-08T09:27:36.945Z,43.32
2018-09-08T09:30:05.493Z,42.74
2018-09-08T09:32:33.697Z,42.86
2018-09-08T09:35:01.835Z,43.36
2018-09-08T09:37:30.084Z,43.59
2018-09-08T09:39:59.207Z,43.56
2018-09-08T09:42:27.425Z,43.34
2018-09-08T09:44:57.430Z,43.71
2018-09-08T09:47:25.746Z,43.23
2018-09-08T09:49:54.315Z,42.90
2018-09-08T09:52:22.798Z,42.68
2018-09-08T09:54:51.045Z,42.17
2018-09-08T09:57:19.286Z,42.61
2018-09-08T09:59:47.468Z,42.69
2018-09-08T10:02:46.373Z,42.78
2018-09-08T10:05:16.600Z,42.26
2018-09-08T10:07:44.974Z,42.42
2018-09-08T10:10:16.599Z,42.65
2018-09-08T10:12:44.887Z,41.74
2018-09-08T10:15:13.217Z,42.79
2018-09-08T10:17:42.124Z,42.00
2018-09-08T10:20:12.424Z,41.56
2018-09-08T10:22:40.663Z,41.20
2018-09-08T10:25:11.175Z,41.14
2018-09-08T10:27:39.709Z,41.26
2018-09-08T10:30:08.856Z,40.79
2018-09-08T10:32:37.273Z,40.63
2018-09-08T10:35:05.636Z,40.01
2018-09-08T10:37:34.005Z,40.83
2018-09-08T10:40:02.358Z,39.56
2018-09-08T10:42:30.747Z,40.19
2018-09-08T10:44:59.076Z,40.41
2018-09-08T10:47:27.555Z,40.28
2018-09-08T10:49:56.875Z,39.23
2018-09-08T10:52:30.571Z,38.91
2018-09-08T10:54:59.485Z,39.53
2018-09-08T10:57:27.972Z,38.74
2018-09-08T10:59:56.242Z,38.82
2018-09-08T11:02:24.790Z,39.49
2018-09-08T11:04:52.768Z,39.42
2018-09-08T11:07:20.975Z,39.79
2018-09-08T11:09:49.389Z,38.97
2018-09-08T11:12:17.618Z,38.95
2018-09-08T11:14:45.967Z,38.97
2018-09-08T11:17:14.269Z,39.52
2018-09-08T11:19:42.561Z,39.60
2018-09-08T11:22:10.838Z,39.32
2018-09-08T11:24:39.207Z,39.57
2018-09-08T11:27:07.583Z,38.86
2018-09-08T11:29:35.803Z,39.01
2018-09-08T11:32:03.978Z,38.71
2018-09-08T11:34:32.523Z,38.63
2018-09-08T11:37:00.764Z,39.15
2018-09-08T11:39:29.534Z,39.19
2018-09-08T11:41:57.857Z,40.21
2018-09-08T11:44:26.557Z,39.65
2018-09-08T11:46:54.744Z,39.82
2018-09-08T11:49:22.995Z,38.79
2018-09-08T11:51:51.312Z,37.80
2018-09-08T11:54:19.634Z,38.89
2018-09-08T11:56:48.113Z,38.61
2018-09-08T11:59:16.514Z,37.71
2018-09-08T12:01:44.696Z,37.77
2018-09-08T12:04:12.939Z,37.46
2018-09-08T12:06:41.088Z,38.04
2018-09-08T12:09:10.896Z,38.52
2018-09-08T12:11:39.100Z,37.59
2018-09-08T12:14:07.737Z,38.56
2018-09-08T12:16:36.033Z,37.71
2018-09-08T12:19:04.277Z,37.83
2018-09-08T12:21:32.559Z,37.44
2018-09-08T12:24:00.780Z,37.83
2018-09-08T12:26:29.064Z,38.36
2018-09-08T12:28:57.403Z,38.80
2018-09-08T12:31:26.024Z,38.58
2018-09-08T12:33:54.215Z,37.86
2018-09-08T12:36:22.368Z,37.63
2018-09-08T12:38:50.559Z,37.46
2018-09-08T12:41:18.735Z,38.05
2018-09-08T12:43:47.088Z,37.13
2018-09-08T12:46:15.285Z,36.95
2018-09-08T12:48:43.459Z,36.46
2018-09-08T12:51:11.707Z,36.57
2018-09-08T12:53:39.906Z,36.83
2018-09-08T12:56:08.160Z,37.26
2018-09-08T12:58:36.435Z,37.95
2018-09-08T13:01:04.714Z,37.81
2018-09-08T13:03:33.056Z,38.14
2018-09-08T13:06:01.294Z,38.15
2018-09-08T13:08:29.596Z,37.63
2018-09-08T13:10:57.836Z,37.80
2018-09-08T13:13:26.083Z,38.04
2018-09-08T13:15:54.271Z,37.87
2018-09-08T13:18:22.481Z,37.82
2018-09-08T13:20:50.761Z,38.13
2018-09-08T13:23:18.913Z,37.55
2018-09-08T13:25:47.131Z,38.13
2018-09-08T13:28:15.293Z,38.03
2018-09-08T13:30:43.593Z,38.21
2018-09-08T13:33:11.793Z,37.78
2018-09-08T13:35:40.599Z,37.90
2018-09-08T13:38:08.805Z,37.46
2018-09-08T13:40:36.983Z,37.37
2018-09-08T13:43:05.199Z,37.40
2018-09-08T13:45:33.655Z,37.18
2018-09-08T13:48:02.501Z,37.06
2018-09-08T13:50:30.772Z,37.41
2018-09-08T13:52:58.995Z,37.67
2018-09-08T13:55:27.435Z,37.13
2018-09-08T13:57:55.632Z,37.24
2018-09-08T14:00:23.825Z,37.26
2018-09-08T14:02:52.036Z,37.84
2018-09-08T14:05:20.249Z,37.62
2018-09-08T14:07:51.712Z,36.83
2018-09-08T14:10:19.859Z,36.53
2018-09-08T14:12:48.043Z,36.44
2018-09-08T14:15:16.345Z,35.95
2018-09-08T14:17:44.663Z,37.15
2018-09-08T14:20:12.831Z,36.64
2018-09-08T14:22:41.001Z,37.45
2018-09-08T14:25:09.189Z,37.00
2018-09-08T14:27:39.745Z,36.94
2018-09-08T14:30:08.215Z,37.35
2018-09-08T14:32:36.473Z,36.63
2018-09-08T14:35:04.668Z,36.80
2018-09-08T14:37:34.443Z,37.63
2018-09-08T14:40:02.662Z,37.54
2018-09-08T14:42:31.560Z,38.02
2018-09-08T14:45:00.457Z,37.30
2018-09-08T14:47:28.738Z,37.66
2018-09-08T14:49:57.227Z,37.88
2018-09-08T14:52:25.434Z,37.78
2018-09-08T14:54:54.453Z,37.49
2018-09-08T14:57:22.774Z,37.16
2018-09-08T14:59:50.965Z,37.86
2018-09-08T15:02:19.292Z,37.56
2018-09-08T15:04:47.533Z,37.61
2018-09-08T15:07:15.873Z,37.76
2018-09-08T15:09:44.193Z,37.46
2018-09-08T15:12:12.582Z,37.97
2018-09-08T15:14:41.163Z,37.36
2018-09-08T15:17:09.345Z,37.78
2018-09-08T15:19:37.967Z,38.27
2018-09-08T15:22:06.501Z,38.37
2018-09-08T15:24:34.742Z,38.07
2018-09-08T15:27:02.921Z,37.82
2018-09-08T15:29:31.279Z,38.02
2018-09-08T15:31:59.499Z,38.40
2018-09-08T15:34:27.781Z,38.07
2018-09-08T15:36:56.131Z,37.62
2018-09-08T15:39:24.375Z,37.50
2018-09-08T15:41:52.563Z,38.11
2018-09-08T15:44:20.791Z,37.63
2018-09-08T15:46:48.921Z,37.46
2018-09-08T15:49:17.300Z,37.81
2018-09-08T15:51:45.454Z,37.78
2018-09-08T15:54:13.879Z,38.20
2018-09-08T15:56:41.999Z,37.60
2018-09-08T15:59:10.305Z,37.68
2018-09-08T16:01:38.525Z,36.99
2018-09-08T16:04:06.920Z,37.20
2018-09-08T16:06:35.197Z,38.10
2018-09-08T16:09:03.557Z,37.96
2018-09-08T16:11:31.821Z,38.07
2018-09-08T16:14:00.085Z,38.29
2018-09-08T16:16:28.315Z,37.77
2018-09-08T16:18:56.926Z,37.64
2018-09-08T16:21:25.183Z,37.97
2018-09-08T16:23:53.419Z,37.46
2018-09-08T16:26:21.668Z,37.56
2018-09-08T16:28:50.294Z,37.25
2018-09-08T16:31:18.798Z,37.69
2018-09-08T16:33:46.988Z,37.38
2018-09-08T16:36:15.237Z,37.89
2018-09-08T16:38:43.576Z,38.68
2018-09-08T16:41:11.695Z,38.92
2018-09-08T16:43:39.949Z,38.75
2018-09-08T16:46:08.475Z,40.09
2018-09-08T16:48:36.791Z,40.32
2018-09-08T16:51:05.170Z,39.26
2018-09-08T16:53:33.463Z,39.89
2018-09-08T16:56:01.811Z,39.96
2018-09-08T16:58:30.437Z,39.75
2018-09-08T17:00:58.745Z,40.75
2018-09-08T17:03:26.975Z,40.61
2018-09-08T17:05:55.184Z,40.79
2018-09-08T17:08:23.393Z,40.36
2018-09-08T17:10:51.658Z,40.76
2018-09-08T17:13:19.872Z,41.52
2018-09-08T17:15:48.079Z,41.55
2018-09-08T17:18:16.449Z,42.37
2018-09-08T17:20:45.296Z,43.06
2018-09-08T17:23:14.517Z,43.21
2018-09-08T17:25:42.707Z,44.21
2018-09-08T17:28:11.101Z,44.00
2018-09-08T17:30:39.556Z,43.45
2018-09-08T17:33:07.771Z,43.29
2018-09-08T17:35:35.977Z,43.52
2018-09-08T17:38:04.499Z,43.89
2018-09-08T17:40:32.802Z,43.86
2018-09-08T17:43:01.205Z,44.31
2018-09-08T17:45:29.439Z,44.33
2018-09-08T17:47:57.645Z,45.14
2018-09-08T17:50:25.878Z,45.06
2018-09-08T17:52:54.081Z,45.49
2018-09-08T17:55:22.543Z,45.65
2018-09-08T17:57:50.961Z,46.22
2018-09-08T18:00:19.792Z,47.19
2018-09-08T18:02:48.269Z,47.35
2018-09-08T18:05:17.152Z,47.87
2018-09-08T18:07:45.433Z,48.84
2018-09-08T18:10:13.730Z,49.53
2018-09-08T18:12:42.064Z,49.29
2018-09-08T18:15:10.601Z,49.74
2018-09-08T18:17:38.952Z,51.17
2018-09-08T18:20:07.369Z,51.71
2018-09-08T18:22:36.495Z,52.36
2018-09-08T18:25:05.174Z,52.87
2018-09-08T18:27:33.515Z,53.03
2018-09-08T18:30:02.083Z,51.95
2018-09-08T18:32:30.543Z,51.56
2018-09-08T18:34:58.763Z,51.49
2018-09-08T18:37:27.623Z,50.99
2018-09-08T18:39:56.444Z,50.63
2018-09-08T18:42:24.584Z,50.21
2018-09-08T18:44:53.470Z,50.26
2018-09-08T18:47:21.784Z,50.91
2018-09-08T18:49:50.026Z,49.84
2018-09-08T18:52:18.245Z,49.50
2018-09-08T18:54:46.457Z,49.82
2018-09-08T18:57:14.678Z,49.86
2018-09-08T18:59:43.062Z,50.45
2018-09-08T19:02:11.260Z,50.55
2018-09-08T19:04:39.483Z,50.33
2018-09-08T19:07:07.695Z,50.99
2018-09-08T19:09:35.886Z,50.61
2018-09-08T19:12:08.832Z,51.72
2018-09-08T19:14:42.367Z,52.81
2018-09-08T19:17:10.769Z,52.72
2018-09-08T19:19:38.948Z,52.48
2018-09-08T19:22:07.548Z,52.74
2018-09-08T19:24:41.383Z,53.20
2018-09-08T19:27:09.576Z,52.98
2018-09-08T19:29:43.203Z,53.24
2018-09-08T19:32:12.437Z,52.93
2018-09-08T19:34:41.535Z,53.59
2018-09-08T19:37:09.819Z,53.26
2018-09-08T19:39:38.249Z,52.82
2018-09-08T19:42:06.783Z,53.04
2018-09-08T19:44:34.976Z,52.91
2018-09-08T19:47:08.525Z,53.63
2018-09-08T19:49:36.751Z,53.66
2018-09-08T19:52:08.772Z,53.30
2018-09-08T19:54:36.990Z,54.06
2018-09-08T19:57:10.686Z,54.48
2018-09-08T19:59:39.043Z,54.15
2018-09-08T20:02:07.413Z,53.97
2018-09-08T20:04:35.645Z,53.22
2018-09-08T20:07:03.870Z,53.13
2018-09-08T20:09:32.199Z,53.29
2018-09-08T20:12:00.453Z,53.40
2018-09-08T20:14:28.814Z,53.52
2018-09-08T20:16:57.146Z,54.22
2018-09-08T20:19:25.425Z,54.36
2018-09-08T20:21:53.630Z,54.42
2018-09-08T20:24:21.991Z,54.43
2018-09-08T20:26:50.393Z,53.79
2018-09-08T20:29:18.367Z,54.72
2018-09-08T20:31:47.078Z,55.66
2018-09-08T20:34:15.249Z,56.03
2018-09-08T20:36:44.018Z,55.66
2018-09-08T20:39:12.345Z,55.69
2018-09-08T20:41:40.698Z,57.01
2018-09-08T20:44:08.873Z,56.49
2018-09-08T20:46:37.101Z,56.51
2018-09-08T20:49:11.031Z,56.79
2018-09-08T20:51:42.124Z,56.13
2018-09-08T20:54:15.395Z,56.98
2018-09-08T20:56:44.695Z,56.11
2018-09-08T20:59:12.945Z,55.80
2018-09-08T21:01:41.228Z,55.93
2018-09-08T21:04:09.497Z,55.79
2018-09-08T21:06:38.826Z,55.47
2018-09-08T21:09:13.757Z,55.73
2018-09-08T21:11:42.004Z,55.38
2018-09-08T21:14:10.248Z,55.00
2018-09-08T21:16:38.453Z,55.20
2018-09-08T21:19:07.383Z,55.41
2018-09-08T21:21:36.399Z,55.73
2018-09-08T21:24:04.569Z,55.80
2018-09-08T21:26:32.766Z,56.12
2018-09-08T21:29:00.919Z,57.09
2018-09-08T21:31:29.247Z,57.12
2018-09-08T21:33:57.473Z,56.68
2018-09-08T21:36:25.689Z,57.10
2018-09-08T21:38:53.941Z,57.60
2018-09-08T21:41:22.116Z,57.76
2018-09-08T21:43:50.433Z,57.74
2018-09-08T21:46:18.667Z,58.05
2018-09-08T21:48:47.079Z,57.48
2018-09-08T21:51:15.283Z,58.06
2018-09-08T21:53:43.431Z,58.69
2018-09-08T21:56:11.583Z,59.09
2018-09-08T21:58:39.723Z,58.50
2018-09-08T22:01:13.272Z,58.79
2018-09-08T22:03:41.455Z,59.07
2018-09-08T22:06:09.584Z,59.50
2018-09-08T22:08:38.895Z,59.92
2018-09-08T22:11:08.203Z,59.79
2018-09-08T22:13:36.711Z,60.41
2018-09-08T22:16:04.992Z,60.25
2018-09-08T22:18:33.125Z,61.16
2018-09-08T22:21:01.331Z,60.71
2018-09-08T22:23:29.545Z,61.44
2018-09-08T22:25:57.722Z,61.79
2018-09-08T22:28:26.617Z,62.50
2018-09-08T22:30:54.791Z,62.97
2018-09-08T22:33:22.986Z,64.21
2018-09-08T22:35:51.251Z,63.78
2018-09-08T22:38:19.481Z,63.50
2018-09-08T22:40:47.681Z,63.38
2018-09-08T22:43:15.925Z,63.97
2018-09-08T22:45:44.203Z,63.95
2018-09-08T22:48:12.406Z,64.05
2018-09-08T22:50:40.651Z,64.67
2018-09-08T22:53:09.809Z,64.93
2018-09-08T22:55:38.153Z,65.00
2018-09-08T22:58:06.761Z,65.32
2018-09-08T23:00:34.961Z,65.11
2018-09-08T23:03:03.478Z,65.72
2018-09-08T23:05:31.773Z,66.87
2018-09-08T23:08:00.091Z,66.62
2018-09-08T23:10:28.417Z,66.07
2018-09-08T23:12:57.043Z,66.85
2018-09-08T23:15:25.357Z,66.00
2018-09-08T23:17:53.553Z,65.83
2018-09-08T23:20:22.328Z,64.96
2018-09-08T23:22:51.629Z,64.71
2018-09-08T23:25:19.955Z,64.39
2018-09-08T23:27:48.331Z,63.89
2018-09-08T23:30:16.604Z,62.61
2018-09-08T23:32:44.787Z,62.63
2018-09-08T23:35:12.999Z,62.35
2018-09-08T23:37:41.161Z,62.37
2018-09-08T23:40:09.643Z,62.34
2018-09-08T23:42:37.777Z,62.12
2018-09-08T23:45:05.947Z,61.91
2018-09-08T23:47:34.176Z,62.05
2018-09-08T23:50:02.345Z,62.04
2018-09-08T23:52:30.749Z,61.21
2018-09-08T23:54:59.058Z,60.39
2018-09-08T23:57:27.217Z,60.06
2018-09-08T23:59:55.505Z,60.31
